createdAt,value
2018-12-01T00:02:30.614Z,3.17
2018-12-01T00:05:20.542Z,2.80
2018-12-01T00:07:51.932Z,2.83
2018-12-01T00:10:23.413Z,2.70
2018-12-01T00:12:54.545Z,2.90
2018-12-01T00:15:28.512Z,3.00
2018-12-01T00:17:59.827Z,3.07
2018-12-01T00:20:33.903Z,2.83
2018-12-01T00:23:05.176Z,2.63
2018-12-01T00:25:36.422Z,3.03
2018-12-01T00:28:07.813Z,3.37
2018-12-01T00:30:38.960Z,3.20
2018-12-01T00:33:10.312Z,3.07
2018-12-01T00:35:41.662Z,3.43
2018-12-01T00:38:12.833Z,2.70
2018-12-01T00:40:44.013Z,3.57
2018-12-01T00:43:15.202Z,3.03
2018-12-01T00:45:46.444Z,2.87
2018-12-01T00:48:17.632Z,3.40
2018-12-01T00:50:48.953Z,2.87
2018-12-01T00:53:20.129Z,3.40
2018-12-01T00:55:51.453Z,3.13
2018-12-01T00:58:22.783Z,3.60
2018-12-01T01:00:54.078Z,4.33
2018-12-01T01:03:25.368Z,3.57
2018-12-01T01:05:56.652Z,4.00
2018-12-01T01:08:27.773Z,3.50
2018-12-01T01:10:59.012Z,3.37
2018-12-01T01:13:30.128Z,4.17
2018-12-01T01:16:01.823Z,4.47
2018-12-01T01:18:32.932Z,4.50
2018-12-01T01:21:04.117Z,4.80
2018-12-01T01:23:35.162Z,4.30
2018-12-01T01:26:06.535Z,4.93
2018-12-01T01:28:37.812Z,5.40
2018-12-01T01:31:09.032Z,5.47
2018-12-01T01:33:40.342Z,4.33
2018-12-01T01:36:11.553Z,5.43
2018-12-01T01:38:42.752Z,4.80
2018-12-01T01:41:14.093Z,5.37
2018-12-01T01:43:45.234Z,5.37
2018-12-01T01:46:16.492Z,5.50
2018-12-01T01:48:47.668Z,4.70
2018-12-01T01:51:18.954Z,5.67
2018-12-01T01:53:50.346Z,5.43
2018-12-01T01:56:21.643Z,5.63
2018-12-01T01:58:52.879Z,5.30
2018-12-01T02:01:24.313Z,6.30
2018-12-01T02:03:55.768Z,6.10
2018-12-01T02:06:27.032Z,6.97
2018-12-01T02:08:58.213Z,6.40
2018-12-01T02:11:29.589Z,6.87
2018-12-01T02:14:00.780Z,6.90
2018-12-01T02:16:32.319Z,6.63
2018-12-01T02:19:03.553Z,5.67
2018-12-01T02:21:34.934Z,7.30
2018-12-01T02:24:06.444Z,7.43
2018-12-01T02:26:37.764Z,6.60
2018-12-01T02:29:08.973Z,7.80
2018-12-01T02:31:40.275Z,6.53
2018-12-01T02:34:11.653Z,7.83
2018-12-01T02:36:42.921Z,7.23
2018-12-01T02:39:14.193Z,8.93
2018-12-01T02:41:47.578Z,8.53
2018-12-01T02:44:30.505Z,8.17
2018-12-01T02:47:09.974Z,7.63
2018-12-01T02:49:41.109Z,7.63
2018-12-01T02:52:12.293Z,6.23
2018-12-01T02:54:43.404Z,7.93
2018-12-01T02:57:15.093Z,8.70
2018-12-01T02:59:46.184Z,7.87
2018-12-01T03:02:17.333Z,8.30
2018-12-01T03:04:48.474Z,7.40
2018-12-01T03:07:19.604Z,6.07
2018-12-01T03:09:50.833Z,5.67
2018-12-01T03:12:21.988Z,5.47
2018-12-01T03:14:53.374Z,5.40
2018-12-01T03:17:25.084Z,4.90
2018-12-01T03:19:56.414Z,5.23
2018-12-01T03:22:27.745Z,5.07
2018-12-01T03:24:58.904Z,4.83
2018-12-01T03:27:36.116Z,4.07
2018-12-01T03:30:09.651Z,4.10
2018-12-01T03:32:41.119Z,3.83
2018-12-01T03:35:14.583Z,4.20
2018-12-01T03:37:47.123Z,3.57
2018-12-01T03:40:19.203Z,4.40
2018-12-01T03:42:50.598Z,4.00
2018-12-01T03:45:23.583Z,3.83
2018-12-01T03:47:54.943Z,3.93
2018-12-01T03:50:26.423Z,3.90
2018-12-01T03:52:58.654Z,3.70
2018-12-01T03:55:32.510Z,3.80
2018-12-01T03:58:04.243Z,3.57
2018-12-01T04:00:36.834Z,4.43
2018-12-01T04:03:08.744Z,4.23
2018-12-01T04:05:40.036Z,4.03
2018-12-01T04:08:11.373Z,4.70
2018-12-01T04:10:42.633Z,4.53
2018-12-01T04:13:14.013Z,4.20
2018-12-01T04:15:45.214Z,4.40
2018-12-01T04:18:17.076Z,4.23
2018-12-01T04:20:48.283Z,5.27
2018-12-01T04:23:19.523Z,4.33
2018-12-01T04:25:50.778Z,4.83
2018-12-01T04:28:22.374Z,4.70
2018-12-01T04:30:53.658Z,3.83
2018-12-01T04:33:25.024Z,4.07
2018-12-01T04:35:57.413Z,4.23
2018-12-01T04:38:28.633Z,4.50
2018-12-01T04:40:59.823Z,3.70
2018-12-01T04:43:31.193Z,3.70
2018-12-01T04:46:02.278Z,3.87
2018-12-01T04:48:33.514Z,3.73
2018-12-01T04:51:04.633Z,3.23
2018-12-01T04:53:35.884Z,3.20
2018-12-01T04:56:07.078Z,4.03
2018-12-01T04:58:38.372Z,2.83
2018-12-01T05:01:09.778Z,2.90
2018-12-01T05:03:41.158Z,3.30
2018-12-01T05:06:12.730Z,2.40
2018-12-01T05:08:44.213Z,2.30
2018-12-01T05:11:15.438Z,2.23
2018-12-01T05:13:46.993Z,3.10
2018-12-01T05:16:18.283Z,3.30
2018-12-01T05:18:50.195Z,3.00
2018-12-01T05:21:21.473Z,3.17
2018-12-01T05:23:52.843Z,2.23
2018-12-01T05:26:24.263Z,2.50
2018-12-01T05:28:55.604Z,2.27
2018-12-01T05:31:26.619Z,2.53
2018-12-01T05:33:58.203Z,1.80
2018-12-01T05:36:29.583Z,1.67
2018-12-01T05:39:01.072Z,1.90
2018-12-01T05:41:32.373Z,1.30
2018-12-01T05:44:03.719Z,1.63
2018-12-01T05:46:34.913Z,1.30
2018-12-01T05:49:06.483Z,1.10
2018-12-01T05:51:37.673Z,1.70
2018-12-01T05:54:09.268Z,1.53
2018-12-01T05:56:40.633Z,1.40
2018-12-01T05:59:11.873Z,1.43
2018-12-01T06:01:43.068Z,1.23
2018-12-01T06:04:14.528Z,1.20
2018-12-01T06:06:45.873Z,1.47
2018-12-01T06:09:17.178Z,1.50
2018-12-01T06:11:48.558Z,1.60
2018-12-01T06:14:19.763Z,1.67
2018-12-01T06:16:55.158Z,1.20
2018-12-01T06:19:29.093Z,0.83
2018-12-01T06:22:00.304Z,1.20
2018-12-01T06:24:31.628Z,1.30
2018-12-01T06:27:02.953Z,1.67
2018-12-01T06:29:34.264Z,1.33
2018-12-01T06:32:05.554Z,1.63
2018-12-01T06:34:36.983Z,1.17
2018-12-01T06:37:08.373Z,1.40
2018-12-01T06:39:39.643Z,1.80
2018-12-01T06:42:11.004Z,1.17
2018-12-01T06:44:42.335Z,0.93
2018-12-01T06:47:13.623Z,1.53
2018-12-01T06:49:45.063Z,1.30
2018-12-01T06:52:16.484Z,2.37
2018-12-01T06:54:47.839Z,1.17
2018-12-01T06:57:19.173Z,1.43
2018-12-01T06:59:50.567Z,2.13
2018-12-01T07:02:21.858Z,1.50
2018-12-01T07:04:53.365Z,1.63
2018-12-01T07:07:24.864Z,1.70
2018-12-01T07:09:56.294Z,1.33
2018-12-01T07:12:27.514Z,1.93
2018-12-01T07:14:58.993Z,1.90
2018-12-01T07:17:30.313Z,1.80
2018-12-01T07:20:02.413Z,1.27
2018-12-01T07:22:33.644Z,1.70
2018-12-01T07:25:05.334Z,2.00
2018-12-01T07:27:36.683Z,2.00
2018-12-01T07:30:12.998Z,2.20
2018-12-01T07:32:44.901Z,1.90
2018-12-01T07:35:16.373Z,1.40
2018-12-01T07:37:47.883Z,1.90
2018-12-01T07:40:19.944Z,1.60
2018-12-01T07:42:51.525Z,1.37
2018-12-01T07:45:22.929Z,2.00
2018-12-01T07:47:54.233Z,1.97
2018-12-01T07:50:25.653Z,1.50
2018-12-01T07:52:57.439Z,1.40
2018-12-01T07:55:28.916Z,1.63
2018-12-01T07:58:00.415Z,1.43
2018-12-01T08:00:31.854Z,1.20
2018-12-01T08:03:03.204Z,0.80
2018-12-01T08:05:34.724Z,1.03
2018-12-01T08:08:06.409Z,1.13
2018-12-01T08:10:38.384Z,0.63
2018-12-01T08:13:09.874Z,1.50
2018-12-01T08:15:41.480Z,0.90
2018-12-01T08:18:12.829Z,1.77
2018-12-01T08:20:44.670Z,1.00
2018-12-01T08:23:15.924Z,1.23
2018-12-01T08:25:47.579Z,1.47
2018-12-01T08:28:21.087Z,0.73
2018-12-01T08:30:52.759Z,0.70
2018-12-01T08:33:24.014Z,1.03
2018-12-01T08:35:55.504Z,0.90
2018-12-01T08:38:28.904Z,1.00
2018-12-01T08:41:00.274Z,0.90
2018-12-01T08:43:31.444Z,1.60
2018-12-01T08:46:02.764Z,1.00
2018-12-01T08:48:34.234Z,1.00
2018-12-01T08:51:05.784Z,0.80
2018-12-01T08:53:37.133Z,1.23
2018-12-01T08:56:09.321Z,0.83
2018-12-01T08:58:40.684Z,0.93
2018-12-01T09:01:12.243Z,0.80
2018-12-01T09:03:43.449Z,1.00
2018-12-01T09:06:14.869Z,0.77
2018-12-01T09:08:46.484Z,0.87
2018-12-01T09:11:17.829Z,0.90
2018-12-01T09:13:49.159Z,0.90
2018-12-01T09:16:20.640Z,1.10
2018-12-01T09:18:52.205Z,0.70
2018-12-01T09:21:23.694Z,0.97
2018-12-01T09:23:55.579Z,0.77
2018-12-01T09:26:27.047Z,0.80
2018-12-01T09:28:58.299Z,1.00
2018-12-01T09:31:29.699Z,0.90
2018-12-01T09:34:01.121Z,1.33
2018-12-01T09:36:32.239Z,0.63
2018-12-01T09:39:03.865Z,1.10
2018-12-01T09:41:35.289Z,0.93
2018-12-01T09:44:11.769Z,1.13
2018-12-01T09:46:43.414Z,0.90
2018-12-01T09:49:14.614Z,0.90
2018-12-01T09:51:45.934Z,1.10
2018-12-01T09:54:17.202Z,0.50
2018-12-01T09:56:48.570Z,1.30
2018-12-01T09:59:19.920Z,1.00
2018-12-01T10:01:51.253Z,0.93
2018-12-01T10:04:22.540Z,1.00
2018-12-01T10:06:54.078Z,0.67
2018-12-01T10:09:25.579Z,0.80
2018-12-01T10:11:57.044Z,0.60
2018-12-01T10:14:28.429Z,0.83
2018-12-01T10:16:59.920Z,0.90
2018-12-01T10:19:31.344Z,1.20
2018-12-01T10:22:02.824Z,0.80
2018-12-01T10:24:34.044Z,0.90
2018-12-01T10:27:05.339Z,1.00
2018-12-01T10:29:36.594Z,0.87
2018-12-01T10:32:08.029Z,1.10
2018-12-01T10:34:39.685Z,0.90
2018-12-01T10:37:11.055Z,1.00
2018-12-01T10:39:42.544Z,1.10
2018-12-01T10:42:14.309Z,1.10
2018-12-01T10:44:45.874Z,1.10
2018-12-01T10:47:17.404Z,0.90
2018-12-01T10:49:48.609Z,1.30
2018-12-01T10:52:20.049Z,0.97
2018-12-01T10:54:51.519Z,1.40
2018-12-01T10:57:24.286Z,1.50
2018-12-01T10:59:54.529Z,1.33
2018-12-01T11:02:30.694Z,1.20
2018-12-01T11:05:02.384Z,1.23
2018-12-01T11:07:34.249Z,1.43
2018-12-01T11:10:06.279Z,1.30
2018-12-01T11:12:38.189Z,1.07
2018-12-01T11:15:10.789Z,1.10
2018-12-01T11:17:42.568Z,1.20
2018-12-01T11:20:14.569Z,1.20
2018-12-01T11:22:46.474Z,1.03
2018-12-01T11:25:17.893Z,0.90
2018-12-01T11:27:49.728Z,0.80
2018-12-01T11:30:21.408Z,0.93
2018-12-01T11:32:52.929Z,0.90
2018-12-01T11:35:24.388Z,1.40
2018-12-01T11:37:55.903Z,1.07
2018-12-01T11:40:27.426Z,1.27
2018-12-01T11:42:58.924Z,1.23
2018-12-01T11:45:30.104Z,1.30
2018-12-01T11:48:01.223Z,1.63
2018-12-01T11:50:32.339Z,1.10
2018-12-01T11:53:03.924Z,1.20
2018-12-01T11:55:35.384Z,1.13
2018-12-01T11:58:06.828Z,1.00
2018-12-01T12:00:38.884Z,1.27
2018-12-01T12:03:10.481Z,0.70
2018-12-01T12:05:42.026Z,1.13
2018-12-01T12:08:20.071Z,1.60
2018-12-01T12:10:52.103Z,1.27
2018-12-01T12:13:24.469Z,0.90
2018-12-01T12:15:55.755Z,1.20
2018-12-01T12:18:27.384Z,1.40
2018-12-01T12:20:58.720Z,1.17
2018-12-01T12:23:37.149Z,0.80
2018-12-01T12:26:08.639Z,1.07
2018-12-01T12:28:40.209Z,1.10
2018-12-01T12:31:11.776Z,1.20
2018-12-01T12:33:43.059Z,1.10
2018-12-01T12:36:14.354Z,1.20
2018-12-01T12:38:45.654Z,1.33
2018-12-01T12:41:17.007Z,1.00
2018-12-01T12:43:48.430Z,1.10
2018-12-01T12:46:19.547Z,1.27
2018-12-01T12:48:50.854Z,1.50
2018-12-01T12:51:22.605Z,1.07
2018-12-01T12:53:54.516Z,1.20
2018-12-01T12:56:25.815Z,0.83
2018-12-01T12:58:57.075Z,1.47
2018-12-01T13:01:28.099Z,0.90
2018-12-01T13:03:59.934Z,1.10
2018-12-01T13:09:48.929Z,1.33
2018-12-01T13:12:34.964Z,1.13
2018-12-01T13:15:11.744Z,0.93
2018-12-01T13:17:42.990Z,1.00
2018-12-01T13:20:23.234Z,1.10
2018-12-01T13:22:56.749Z,0.97
2018-12-01T13:25:30.479Z,0.80
2018-12-01T13:28:07.028Z,1.10
2018-12-01T13:30:45.078Z,1.90
2018-12-01T13:33:16.339Z,1.20
2018-12-01T13:35:47.658Z,1.27
2018-12-01T13:38:19.169Z,1.30
2018-12-01T13:40:50.623Z,1.17
2018-12-01T13:43:23.199Z,0.93
2018-12-01T13:45:55.121Z,1.17
2018-12-01T13:48:29.145Z,1.10
2018-12-01T13:51:02.939Z,1.00
2018-12-01T13:53:35.506Z,1.20
2018-12-01T13:56:10.428Z,0.90
2018-12-01T13:58:42.814Z,0.97
2018-12-01T14:01:14.144Z,1.43
2018-12-01T14:03:45.679Z,1.07
2018-12-01T14:06:17.187Z,0.90
2018-12-01T14:08:48.754Z,1.17
2018-12-01T14:11:22.644Z,1.03
2018-12-01T14:13:54.009Z,1.10
2018-12-01T14:16:25.214Z,1.07
2018-12-01T14:18:56.544Z,1.67
2018-12-01T14:21:27.909Z,0.97
2018-12-01T14:23:59.239Z,1.50
2018-12-01T14:26:31.026Z,1.00
2018-12-01T14:29:02.526Z,1.30
2018-12-01T14:31:34.049Z,1.00
2018-12-01T14:34:05.489Z,1.30
2018-12-01T14:36:36.823Z,1.57
2018-12-01T14:39:09.818Z,1.43
2018-12-01T14:41:41.294Z,1.23
2018-12-01T14:44:12.629Z,1.03
2018-12-01T14:46:44.128Z,1.07
2018-12-01T14:49:15.624Z,1.20
2018-12-01T14:51:47.224Z,1.27
2018-12-01T14:54:18.754Z,1.40
2018-12-01T14:56:50.212Z,1.60
2018-12-01T14:59:22.338Z,0.93
2018-12-01T15:02:57.059Z,1.07
2018-12-01T15:05:28.808Z,1.17
2018-12-01T15:08:00.333Z,1.40
2018-12-01T15:10:32.283Z,1.10
2018-12-01T15:13:03.773Z,1.20
2018-12-01T15:15:35.268Z,1.50
2018-12-01T15:18:06.814Z,1.03
2018-12-01T15:20:38.307Z,1.23
2018-12-01T15:23:10.299Z,1.30
2018-12-01T15:25:42.293Z,1.30
2018-12-01T15:28:14.373Z,1.27
2018-12-01T15:30:45.998Z,1.53
2018-12-01T15:33:18.588Z,0.90
2018-12-01T15:35:49.962Z,0.60
2018-12-01T15:38:21.654Z,0.67
2018-12-01T15:40:53.623Z,1.10
2018-12-01T15:43:25.179Z,0.83
2018-12-01T15:45:56.610Z,1.23
2018-12-01T15:48:28.813Z,1.03
2018-12-01T15:51:00.178Z,1.00
2018-12-01T15:53:31.373Z,1.10
2018-12-01T15:56:02.427Z,1.30
2018-12-01T15:58:33.873Z,0.87
2018-12-01T16:01:05.247Z,1.57
2018-12-01T16:03:36.833Z,1.20
2018-12-01T16:06:08.153Z,0.80
2018-12-01T16:08:39.623Z,1.40
2018-12-01T16:11:10.940Z,1.00
2018-12-01T16:13:42.232Z,1.03
2018-12-01T16:16:13.763Z,1.07
2018-12-01T16:18:45.333Z,1.03
2018-12-01T16:21:16.599Z,1.10
2018-12-01T16:23:48.088Z,1.10
2018-12-01T16:26:20.703Z,1.00
2018-12-01T16:28:52.952Z,0.87
2018-12-01T16:31:24.298Z,0.90
2018-12-01T16:33:55.490Z,1.00
2018-12-01T16:36:26.689Z,0.90
2018-12-01T16:38:58.154Z,1.03
2018-12-01T16:41:31.863Z,0.77
2018-12-01T16:44:03.398Z,0.90
2018-12-01T16:46:35.437Z,1.03
2018-12-01T16:49:07.234Z,0.90
2018-12-01T16:51:38.547Z,0.97
2018-12-01T16:54:10.196Z,1.40
2018-12-01T16:56:41.318Z,1.20
2018-12-01T16:59:13.007Z,1.23
2018-12-01T17:01:44.188Z,1.10
2018-12-01T17:04:15.458Z,1.10
2018-12-01T17:06:46.903Z,1.10
2018-12-01T17:09:18.262Z,1.05
2018-12-01T17:11:49.753Z,1.50
2018-12-01T17:14:22.018Z,1.50
2018-12-01T17:16:53.503Z,0.95
2018-12-01T17:19:24.913Z,1.20
2018-12-01T17:21:57.108Z,1.20
2018-12-01T17:24:28.593Z,1.20
2018-12-01T17:26:59.683Z,1.20
2018-12-01T17:29:36.595Z,1.17
2018-12-01T17:32:03.408Z,0.90
2018-12-01T17:34:34.788Z,1.37
2018-12-01T17:37:06.013Z,1.70
2018-12-01T17:39:37.511Z,2.00
2018-12-01T17:42:09.133Z,1.40
2018-12-01T17:44:40.423Z,5.07
2018-12-01T17:47:11.667Z,1.50
2018-12-01T17:49:43.968Z,1.87
2018-12-01T17:52:14.483Z,1.20
2018-12-01T17:54:45.713Z,1.50
2018-12-01T17:57:16.943Z,2.07
2018-12-01T17:59:48.213Z,2.60
2018-12-01T18:02:19.473Z,2.10
2018-12-01T18:04:50.735Z,2.67
2018-12-01T18:07:22.242Z,1.67
2018-12-01T18:09:53.435Z,1.37
2018-12-01T18:12:24.648Z,1.70
2018-12-01T18:14:55.988Z,1.70
2018-12-01T18:17:27.438Z,2.17
2018-12-01T18:19:58.750Z,1.80
2018-12-01T18:22:30.074Z,1.47
2018-12-01T18:25:01.482Z,2.27
2018-12-01T18:27:32.518Z,1.70
2018-12-01T18:30:04.309Z,1.80
2018-12-01T18:32:35.848Z,2.80
2018-12-01T18:35:07.881Z,1.90
2018-12-01T18:37:40.244Z,1.37
2018-12-01T18:40:17.343Z,4.07
2018-12-01T18:42:48.768Z,3.47
2018-12-01T18:45:21.388Z,3.03
2018-12-01T18:47:52.743Z,1.87
2018-12-01T18:50:24.229Z,1.57
2018-12-01T18:52:58.809Z,1.70
2018-12-01T18:55:32.964Z,1.70
2018-12-01T18:58:04.480Z,1.30
2018-12-01T19:00:45.320Z,1.50
2018-12-01T19:03:16.860Z,2.40
2018-12-01T19:05:48.158Z,1.93
2018-12-01T19:08:19.468Z,2.07
2018-12-01T19:10:50.958Z,1.50
2018-12-01T19:13:22.157Z,1.90
2018-12-01T19:15:53.433Z,2.00
2018-12-01T19:18:24.784Z,2.77
2018-12-01T19:20:56.084Z,4.07
2018-12-01T19:23:27.343Z,3.10
2018-12-01T19:28:04.814Z,1.77
2018-12-01T19:30:36.659Z,2.13
2018-12-01T19:33:13.653Z,2.07
2018-12-01T19:35:45.528Z,2.20
2018-12-01T19:38:18.408Z,2.60
2018-12-01T19:40:49.708Z,2.50
2018-12-01T19:43:20.905Z,1.80
2018-12-01T19:45:52.253Z,1.90
2018-12-01T19:48:23.693Z,1.80
2018-12-01T19:50:55.293Z,2.13
2018-12-01T19:53:26.763Z,1.33
2018-12-01T19:55:58.093Z,1.47
2018-12-01T19:58:31.532Z,1.65
2018-12-01T20:01:03.063Z,1.50
2018-12-01T20:03:34.742Z,1.20
2018-12-01T20:06:06.319Z,2.12
2018-12-01T20:08:37.953Z,1.85
2018-12-01T20:11:09.583Z,1.55
2018-12-01T20:13:42.668Z,2.00
2018-12-01T20:16:18.335Z,2.90
2018-12-01T20:18:49.879Z,2.27
2018-12-01T20:21:21.563Z,1.50
2018-12-01T20:23:53.826Z,1.40
2018-12-01T20:26:25.188Z,1.57
2018-12-01T20:28:56.968Z,1.40
2018-12-01T20:31:28.819Z,1.87
2018-12-01T20:34:01.937Z,2.00
2018-12-01T20:36:36.748Z,1.87
2018-12-01T20:39:12.774Z,2.10
2018-12-01T20:41:44.354Z,1.13
2018-12-01T20:44:15.868Z,1.65
2018-12-01T20:46:47.234Z,1.67
2018-12-01T20:49:18.794Z,2.03
2018-12-01T20:51:50.866Z,1.63
2018-12-01T20:54:31.563Z,1.32
2018-12-01T20:57:07.378Z,1.47
2018-12-01T20:59:38.947Z,1.10
2018-12-01T21:02:11.482Z,1.93
2018-12-01T21:04:43.228Z,1.55
2018-12-01T21:07:14.579Z,2.50
2018-12-01T21:09:45.933Z,2.50
2018-12-01T21:12:17.513Z,2.07
2018-12-01T21:14:48.782Z,1.90
2018-12-01T21:17:20.208Z,1.75
2018-12-01T21:20:50.457Z,1.50
2018-12-01T21:23:22.202Z,1.42
2018-12-01T21:25:53.468Z,1.57
2018-12-01T21:28:24.643Z,1.70
2018-12-01T21:30:56.032Z,1.50
2018-12-01T21:33:31.202Z,1.97
2018-12-01T21:36:02.543Z,1.50
2018-12-01T21:38:33.903Z,1.30
2018-12-01T21:41:05.210Z,1.62
2018-12-01T21:43:36.474Z,2.15
2018-12-01T21:46:08.258Z,2.43
2018-12-01T21:48:39.482Z,2.10
2018-12-01T21:51:11.028Z,1.77
2018-12-01T21:53:42.493Z,1.30
2018-12-01T21:56:13.967Z,1.83
2018-12-01T21:58:45.193Z,1.57
2018-12-01T22:01:16.428Z,1.83
2018-12-01T22:03:47.803Z,1.60
2018-12-01T22:06:19.238Z,2.05
2018-12-01T22:08:50.528Z,1.43
2018-12-01T22:11:21.453Z,1.63
2018-12-01T22:13:52.448Z,2.00
2018-12-01T22:16:23.550Z,1.90
2018-12-01T22:18:54.553Z,2.00
2018-12-01T22:21:25.602Z,2.37
2018-12-01T22:23:56.827Z,1.70
2018-12-01T22:26:27.942Z,2.37
2018-12-01T22:28:58.969Z,1.80
2018-12-01T22:31:30.098Z,1.30
2018-12-01T22:34:01.838Z,1.30
2018-12-01T22:36:32.920Z,1.90
2018-12-01T22:39:04.323Z,2.00
2018-12-01T22:41:35.657Z,2.03
2018-12-01T22:44:06.799Z,1.73
2018-12-01T22:46:38.024Z,2.12
2018-12-01T22:49:09.073Z,2.17
2018-12-01T22:51:40.287Z,1.43
2018-12-01T22:54:11.517Z,1.90
2018-12-01T22:56:42.583Z,1.70
2018-12-01T22:59:13.727Z,2.07
2018-12-01T23:01:45.082Z,2.00
2018-12-01T23:04:15.987Z,1.95
2018-12-01T23:06:47.042Z,2.20
2018-12-01T23:09:17.933Z,1.90
2018-12-01T23:11:48.898Z,1.73
2018-12-01T23:14:19.763Z,1.80
2018-12-01T23:16:50.803Z,1.57
2018-12-01T23:19:21.788Z,1.12
2018-12-01T23:21:53.106Z,1.73
2018-12-01T23:24:24.257Z,2.07
2018-12-01T23:26:55.193Z,2.23
2018-12-01T23:29:26.163Z,2.13
2018-12-01T23:31:57.332Z,2.03
2018-12-01T23:34:28.662Z,1.97
2018-12-01T23:36:59.743Z,2.00
2018-12-01T23:39:30.606Z,1.73
2018-12-01T23:42:01.567Z,2.03
2018-12-01T23:44:32.551Z,2.10
2018-12-01T23:47:03.502Z,1.93
2018-12-01T23:49:34.413Z,1.83
2018-12-01T23:52:05.888Z,1.93
2018-12-01T23:54:37.142Z,1.80
2018-12-01T23:57:08.498Z,1.63
2018-12-01T23:59:39.352Z,1.77
